createdAt,value
2019-04-11T00:01:33.896Z,13.79
2019-04-11T00:03:55.659Z,13.84
2019-04-11T00:06:29.645Z,13.86
2019-04-11T00:09:01.089Z,13.84
2019-04-11T00:11:33.662Z,13.83
2019-04-11T00:14:05.304Z,13.88
2019-04-11T00:16:35.610Z,13.87
2019-04-11T00:19:07.318Z,13.83
2019-04-11T00:21:43.267Z,13.86
2019-04-11T00:24:14.452Z,13.75
2019-04-11T00:26:45.217Z,13.73
2019-04-11T00:29:16.660Z,13.70
2019-04-11T00:31:47.939Z,13.75
2019-04-11T00:34:18.531Z,13.80
2019-04-11T00:36:50.999Z,13.73
2019-04-11T00:39:25.718Z,13.73
2019-04-11T00:41:56.530Z,13.63
2019-04-11T00:44:27.226Z,13.67
2019-04-11T00:46:58.492Z,13.68
2019-04-11T00:49:30.466Z,13.60
2019-04-11T00:52:02.543Z,13.66
2019-04-11T00:54:33.501Z,13.59
2019-04-11T00:57:04.522Z,13.65
2019-04-11T00:59:35.227Z,13.62
2019-04-11T01:02:07.287Z,13.49
2019-04-11T01:04:37.524Z,13.56
2019-04-11T01:07:08.896Z,13.45
2019-04-11T01:09:40.227Z,13.43
2019-04-11T01:12:12.175Z,13.43
2019-04-11T01:14:42.730Z,13.34
2019-04-11T01:17:14.850Z,13.36
2019-04-11T01:19:45.110Z,13.36
2019-04-11T01:22:18.163Z,13.30
2019-04-11T01:24:48.317Z,13.35
2019-04-11T01:27:18.494Z,13.25
2019-04-11T01:29:49.526Z,13.20
2019-04-11T01:32:20.599Z,13.25
2019-04-11T01:34:50.970Z,12.99
2019-04-11T01:37:24.234Z,13.07
2019-04-11T01:40:13.735Z,12.97
2019-04-11T01:42:44.881Z,12.80
2019-04-11T01:45:19.045Z,13.03
2019-04-11T01:48:07.046Z,12.87
2019-04-11T01:50:39.296Z,12.97
2019-04-11T01:53:12.961Z,12.83
2019-04-11T01:55:45.025Z,12.65
2019-04-11T01:58:16.302Z,12.78
2019-04-11T02:00:58.864Z,12.83
2019-04-11T02:04:07.746Z,12.84
2019-04-11T02:06:38.607Z,12.84
2019-04-11T02:09:13.849Z,12.79
2019-04-11T02:11:45.827Z,12.77
2019-04-11T02:14:19.553Z,12.65
2019-04-11T02:16:51.134Z,12.59
2019-04-11T02:19:21.784Z,12.67
2019-04-11T02:21:53.801Z,12.63
2019-04-11T02:24:42.394Z,12.68
2019-04-11T02:27:24.442Z,12.53
2019-04-11T02:29:56.301Z,12.52
2019-04-11T02:32:29.332Z,12.44
2019-04-11T02:35:02.490Z,12.39
2019-04-11T02:37:34.302Z,12.37
2019-04-11T02:40:08.142Z,12.36
2019-04-11T02:42:41.216Z,12.43
2019-04-11T02:45:24.442Z,12.42
2019-04-11T02:47:48.119Z,12.47
2019-04-11T02:50:19.743Z,12.39
2019-04-11T02:52:50.306Z,12.28
2019-04-11T02:55:22.206Z,12.26
2019-04-11T02:57:54.545Z,12.04
2019-04-11T03:00:26.564Z,11.92
2019-04-11T03:02:57.036Z,11.98
2019-04-11T03:05:28.859Z,12.11
2019-04-11T03:08:06.593Z,12.20
2019-04-11T03:10:37.553Z,12.14
2019-04-11T03:13:08.615Z,12.15
2019-04-11T03:15:54.471Z,12.01
2019-04-11T03:18:25.996Z,12.13
2019-04-11T03:20:53.186Z,12.20
2019-04-11T03:23:20.917Z,11.95
2019-04-11T03:25:52.468Z,11.88
2019-04-11T03:28:27.623Z,11.92
2019-04-11T03:31:27.275Z,11.78
2019-04-11T03:37:03.325Z,11.72
2019-04-11T03:39:01.755Z,11.82
2019-04-11T03:41:26.997Z,11.77
2019-04-11T03:43:55.460Z,11.65
2019-04-11T03:46:32.687Z,11.48
2019-04-11T03:49:00.529Z,11.63
2019-04-11T03:51:22.776Z,11.60
2019-04-11T03:53:53.786Z,11.52
2019-04-11T03:56:26.788Z,11.43
2019-04-11T03:58:58.628Z,11.50
2019-04-11T04:01:29.673Z,11.55
2019-04-11T04:04:00.599Z,11.61
2019-04-11T04:06:31.494Z,11.63
2019-04-11T04:09:03.571Z,11.59
2019-04-11T04:11:38.448Z,11.66
2019-04-11T04:14:17.719Z,11.62
2019-04-11T04:17:06.887Z,11.45
2019-04-11T04:19:49.901Z,11.54
2019-04-11T04:22:27.268Z,11.39
2019-04-11T04:24:59.071Z,11.37
2019-04-11T04:27:32.475Z,11.44
2019-04-11T04:30:05.355Z,11.31
2019-04-11T04:32:36.270Z,11.48
2019-04-11T04:35:12.748Z,11.34
2019-04-11T04:37:43.119Z,11.32
2019-04-11T04:40:33.581Z,11.39
2019-04-11T04:42:55.462Z,11.37
2019-04-11T04:45:23.967Z,11.20
2019-04-11T04:48:02.951Z,11.36
2019-04-11T04:50:28.445Z,11.33
2019-04-11T04:53:02.309Z,11.41
2019-04-11T04:55:32.766Z,11.38
2019-04-11T04:58:04.933Z,11.43
2019-04-11T05:00:39.486Z,11.38
2019-04-11T05:03:11.359Z,11.39
2019-04-11T05:05:44.250Z,11.35
2019-04-11T05:08:16.576Z,11.39
2019-04-11T05:10:47.250Z,11.39
2019-04-11T05:13:19.762Z,11.44
2019-04-11T05:16:05.873Z,11.42
2019-04-11T05:18:23.698Z,11.35
2019-04-11T05:20:54.766Z,11.39
2019-04-11T05:23:25.708Z,11.41
2019-04-11T05:25:57.143Z,11.43
2019-04-11T05:28:29.809Z,11.41
2019-04-11T05:31:00.463Z,11.34
2019-04-11T05:33:33.079Z,11.42
2019-04-11T05:36:04.012Z,11.48
2019-04-11T05:38:35.973Z,11.55
2019-04-11T05:41:12.012Z,11.49
2019-04-11T05:43:41.823Z,11.49
2019-04-11T05:46:26.112Z,11.39
2019-04-11T05:48:57.845Z,11.44
2019-04-11T05:51:26.725Z,11.46
2019-04-11T05:54:01.955Z,11.31
2019-04-11T05:56:33.431Z,11.60
2019-04-11T05:59:18.472Z,11.25
2019-04-11T06:01:55.272Z,11.63
2019-04-11T06:04:32.328Z,11.61
2019-04-11T06:07:27.179Z,11.77
2019-04-11T06:10:07.097Z,11.85
2019-04-11T06:12:52.617Z,11.69
2019-04-11T06:15:29.190Z,11.68
2019-04-11T06:18:04.859Z,11.86
2019-04-11T06:20:56.388Z,11.92
2019-04-11T06:23:55.898Z,11.96
2019-04-11T06:26:45.637Z,12.09
2019-04-11T06:29:32.019Z,11.83
2019-04-11T06:32:38.778Z,11.99
2019-04-11T06:35:16.175Z,12.20
2019-04-11T06:38:22.656Z,11.88
2019-04-11T06:41:02.019Z,12.41
2019-04-11T06:43:54.556Z,12.13
2019-04-11T06:46:48.493Z,12.27
2019-04-11T06:49:34.286Z,12.51
2019-04-11T06:52:06.400Z,12.20
2019-04-11T06:54:43.824Z,12.69
2019-04-11T06:57:18.089Z,12.88
2019-04-11T06:59:52.474Z,13.05
2019-04-11T07:02:25.720Z,12.94
2019-04-11T07:05:02.604Z,12.41
2019-04-11T07:07:36.012Z,12.74
2019-04-11T07:10:09.558Z,12.79
2019-04-11T07:12:49.358Z,12.90
2019-04-11T07:15:23.436Z,12.97
2019-04-11T07:18:11.960Z,13.26
2019-04-11T07:21:03.117Z,12.51
2019-04-11T07:23:53.264Z,12.78
2019-04-11T07:26:50.080Z,12.99
2019-04-11T07:29:44.264Z,12.97
2019-04-11T07:32:18.023Z,13.22
2019-04-11T07:35:09.307Z,12.79
2019-04-11T07:37:47.585Z,12.87
2019-04-11T07:40:39.515Z,13.20
2019-04-11T07:43:29.302Z,13.16
2019-04-11T07:46:18.813Z,12.95
2019-04-11T07:48:50.536Z,13.16
2019-04-11T07:51:32.205Z,13.56
2019-04-11T07:54:04.894Z,13.77
2019-04-11T07:56:58.679Z,13.07
2019-04-11T07:59:49.039Z,13.71
2019-04-11T08:02:39.778Z,13.77
2019-04-11T08:05:30.237Z,12.42
2019-04-11T08:08:28.480Z,13.03
2019-04-11T08:11:27.671Z,12.98
2019-04-11T08:14:21.894Z,12.81
2019-04-11T08:17:07.256Z,13.53
2019-04-11T08:19:55.541Z,13.13
2019-04-11T08:22:47.630Z,12.78
2019-04-11T08:25:50.371Z,13.12
2019-04-11T08:28:24.836Z,13.67
2019-04-11T08:31:28.749Z,13.92
2019-04-11T08:34:02.753Z,13.63
2019-04-11T08:37:11.530Z,14.10
2019-04-11T08:39:45.606Z,13.60
2019-04-11T08:42:33.751Z,14.21
2019-04-11T08:45:08.164Z,13.80
2019-04-11T08:47:47.676Z,14.43
2019-04-11T08:50:18.737Z,14.55
2019-04-11T08:53:06.662Z,14.68
2019-04-11T08:55:58.985Z,14.97
2019-04-11T08:58:38.445Z,13.81
2019-04-11T09:01:11.561Z,14.01
2019-04-11T09:04:10.194Z,14.55
2019-04-11T09:06:41.307Z,13.68
2019-04-11T09:09:40.142Z,14.87
2019-04-11T09:12:14.192Z,14.01
2019-04-11T09:15:10.683Z,14.35
2019-04-11T09:17:56.869Z,14.84
2019-04-11T09:20:43.388Z,14.33
2019-04-11T09:23:18.108Z,15.10
2019-04-11T09:26:07.523Z,15.39
2019-04-11T09:28:49.482Z,15.61
2019-04-11T09:31:41.418Z,14.57
2019-04-11T09:34:31.336Z,14.52
2019-04-11T09:37:21.998Z,15.25
2019-04-11T09:40:19.502Z,15.47
2019-04-11T09:43:09.765Z,16.02
2019-04-11T09:45:59.809Z,16.35
2019-04-11T09:48:48.870Z,15.86
2019-04-11T09:51:48.039Z,16.29
2019-04-11T09:54:26.459Z,17.00
2019-04-11T09:57:16.510Z,16.95
2019-04-11T10:00:22.882Z,16.91
2019-04-11T10:03:00.881Z,17.26
2019-04-11T10:05:51.777Z,17.49
2019-04-11T10:08:35.607Z,17.74
2019-04-11T10:11:26.725Z,18.10
2019-04-11T10:14:17.506Z,18.29
2019-04-11T10:17:02.482Z,18.17
2019-04-11T10:19:44.311Z,17.88
2019-04-11T10:22:49.031Z,18.34
2019-04-11T10:25:39.509Z,17.28
2019-04-11T10:28:29.829Z,17.97
2019-04-11T10:31:11.106Z,18.18
2019-04-11T10:34:09.829Z,18.25
2019-04-11T10:36:52.239Z,18.41
2019-04-11T10:39:43.802Z,18.47
2019-04-11T10:42:15.623Z,18.86
2019-04-11T10:45:04.756Z,18.88
2019-04-11T10:47:36.737Z,19.21
2019-04-11T10:50:30.476Z,19.49
2019-04-11T10:53:03.663Z,18.80
2019-04-11T10:56:04.260Z,19.39
2019-04-11T10:58:51.234Z,19.24
2019-04-11T11:01:42.206Z,19.81
2019-04-11T11:04:19.961Z,19.78
2019-04-11T11:06:56.298Z,20.19
2019-04-11T11:09:36.795Z,20.38
2019-04-11T11:12:41.465Z,20.32
2019-04-11T11:15:28.503Z,20.45
2019-04-11T11:18:54.208Z,20.90
2019-04-11T11:21:11.357Z,21.12
2019-04-11T11:24:08.467Z,21.39
2019-04-11T11:26:41.311Z,21.30
2019-04-11T11:29:40.396Z,21.75
2019-04-11T11:32:43.308Z,21.75
2019-04-11T11:35:42.964Z,21.90
2019-04-11T11:38:17.933Z,22.37
2019-04-11T11:41:07.998Z,22.19
2019-04-11T11:43:39.135Z,21.67
2019-04-11T11:46:30.074Z,21.62
2019-04-11T11:49:37.662Z,21.75
2019-04-11T11:52:13.076Z,22.12
2019-04-11T11:54:48.244Z,22.64
2019-04-11T11:57:44.756Z,22.32
2019-04-11T12:00:23.304Z,22.84
2019-04-11T12:03:19.084Z,22.09
2019-04-11T12:05:59.107Z,24.19
2019-04-11T12:08:56.068Z,25.27
2019-04-11T12:11:28.264Z,26.41
2019-04-11T12:14:29.633Z,27.66
2019-04-11T12:17:14.480Z,28.44
2019-04-11T12:20:04.983Z,30.67
2019-04-11T12:22:32.721Z,31.25
2019-04-11T12:25:22.909Z,31.65
2019-04-11T12:28:15.646Z,32.53
2019-04-11T12:30:53.057Z,33.53
2019-04-11T12:33:41.623Z,34.32
2019-04-11T12:36:14.731Z,34.38
2019-04-11T12:38:56.223Z,35.11
2019-04-11T12:41:45.823Z,35.75
2019-04-11T12:44:47.836Z,36.56
2019-04-11T12:47:23.610Z,36.26
2019-04-11T12:50:22.030Z,36.51
2019-04-11T12:53:03.583Z,37.71
2019-04-11T12:55:42.326Z,37.48
2019-04-11T12:58:23.704Z,37.08
2019-04-11T13:01:12.918Z,38.04
2019-04-11T13:04:01.219Z,37.65
2019-04-11T13:06:55.724Z,38.38
2019-04-11T13:09:38.330Z,38.30
2019-04-11T13:12:16.910Z,38.28
2019-04-11T13:15:13.506Z,38.13
2019-04-11T13:17:48.189Z,38.44
2019-04-11T13:20:50.028Z,38.70
2019-04-11T13:23:42.019Z,38.68
2019-04-11T13:26:30.485Z,39.07
2019-04-11T13:29:16.361Z,38.74
2019-04-11T13:32:05.349Z,38.83
2019-04-11T13:34:36.944Z,37.54
2019-04-11T13:37:27.104Z,37.47
2019-04-11T13:40:12.174Z,36.94
2019-04-11T13:43:08.080Z,36.73
2019-04-11T13:45:48.647Z,36.41
2019-04-11T13:48:38.196Z,37.08
2019-04-11T13:51:36.073Z,36.87
2019-04-11T13:54:26.042Z,36.83
2019-04-11T13:57:09.836Z,37.10
2019-04-11T13:59:58.577Z,37.51
2019-04-11T14:02:50.643Z,37.50
2019-04-11T14:05:14.707Z,37.84
2019-04-11T14:07:46.732Z,38.32
2019-04-11T14:10:18.888Z,38.10
2019-04-11T14:12:50.270Z,37.20
2019-04-11T14:15:22.267Z,37.46
2019-04-11T14:18:12.212Z,37.51
2019-04-11T14:20:46.032Z,36.44
2019-04-11T14:23:35.292Z,37.41
2019-04-11T14:26:13.325Z,37.82
2019-04-11T14:28:57.623Z,37.92
2019-04-11T14:31:56.619Z,38.48
2019-04-11T14:34:52.081Z,38.68
2019-04-11T14:37:38.581Z,38.82
2019-04-11T14:41:01.639Z,36.77
2019-04-11T14:43:29.920Z,38.01
2019-04-11T14:46:24.487Z,37.83
2019-04-11T14:49:11.417Z,37.16
2019-04-11T14:52:09.107Z,36.89
2019-04-11T14:55:04.894Z,35.96
2019-04-11T14:57:55.920Z,34.40
2019-04-11T15:00:47.107Z,33.54
2019-04-11T15:03:45.927Z,32.51
2019-04-11T15:06:32.891Z,30.78
2019-04-11T15:09:27.289Z,28.92
2019-04-11T15:12:17.656Z,28.94
2019-04-11T15:15:15.494Z,28.59
2019-04-11T15:17:56.847Z,28.31
2019-04-11T15:20:59.578Z,28.55
2019-04-11T15:23:45.805Z,29.11
2019-04-11T15:26:41.855Z,29.92
2019-04-11T15:29:29.347Z,29.70
2019-04-11T15:32:18.646Z,28.56
2019-04-11T15:34:57.555Z,26.79
2019-04-11T15:37:47.199Z,25.58
2019-04-11T15:40:21.761Z,25.00
2019-04-11T15:43:18.989Z,24.47
2019-04-11T15:46:01.174Z,23.88
2019-04-11T15:49:01.335Z,22.96
2019-04-11T15:51:43.240Z,22.51
2019-04-11T15:54:34.885Z,22.15
2019-04-11T15:57:33.857Z,21.70
2019-04-11T16:00:31.097Z,21.22
2019-04-11T16:03:12.917Z,20.43
2019-04-11T16:06:02.864Z,20.19
2019-04-11T16:08:43.314Z,20.18
2019-04-11T16:11:32.438Z,20.10
2019-04-11T16:14:29.317Z,19.57
2019-04-11T16:17:23.800Z,18.97
2019-04-11T16:20:03.451Z,18.99
2019-04-11T16:23:39.391Z,18.77
2019-04-11T16:29:55.992Z,18.42
2019-04-11T16:32:29.348Z,18.43
2019-04-11T16:35:20.259Z,18.53
2019-04-11T16:41:13.007Z,18.07
2019-04-11T16:43:56.121Z,17.92
2019-04-11T16:47:01.363Z,17.98
2019-04-11T16:49:37.203Z,18.17
2019-04-11T17:00:52.547Z,17.77
2019-04-11T17:03:33.313Z,17.73
2019-04-11T17:06:18.694Z,17.46
2019-04-11T17:09:04.147Z,17.38
2019-04-11T17:11:35.714Z,17.29
2019-04-11T17:14:08.769Z,17.30
2019-04-11T17:16:43.243Z,17.27
2019-04-11T17:19:18.197Z,17.11
2019-04-11T17:21:49.156Z,17.01
2019-04-11T17:24:22.242Z,16.99
2019-04-11T17:26:53.947Z,17.21
2019-04-11T17:29:34.857Z,17.21
2019-04-11T17:32:10.927Z,17.19
2019-04-11T17:34:53.599Z,17.15
2019-04-11T17:37:33.793Z,17.09
2019-04-11T17:40:08.503Z,16.86
2019-04-11T17:42:44.030Z,16.92
2019-04-11T17:45:16.094Z,16.85
2019-04-11T17:47:50.170Z,16.70
2019-04-11T17:50:22.216Z,16.64
2019-04-11T17:52:55.762Z,16.68
2019-04-11T17:55:27.660Z,16.73
2019-04-11T17:58:26.773Z,16.73
2019-04-11T18:01:05.166Z,16.73
2019-04-11T18:03:35.251Z,16.46
2019-04-11T18:06:09.763Z,16.21
2019-04-11T18:08:52.118Z,16.15
2019-04-11T18:11:47.055Z,16.02
2019-04-11T18:14:20.469Z,16.05
2019-04-11T18:16:50.999Z,16.01
2019-04-11T18:19:22.296Z,15.98
2019-04-11T18:21:53.478Z,15.96
2019-04-11T18:24:23.822Z,15.94
2019-04-11T18:26:55.580Z,15.71
2019-04-11T18:29:28.284Z,15.89
2019-04-11T18:32:00.703Z,15.65
2019-04-11T18:34:32.342Z,15.80
2019-04-11T18:37:02.991Z,15.49
2019-04-11T18:39:36.034Z,15.53
2019-04-11T18:42:10.210Z,15.28
2019-04-11T18:44:42.801Z,15.14
2019-04-11T18:47:16.235Z,15.15
2019-04-11T18:49:47.232Z,15.19
2019-04-11T18:52:19.905Z,15.11
2019-04-11T18:54:50.792Z,14.99
2019-04-11T18:57:22.265Z,15.02
2019-04-11T18:59:55.428Z,14.99
2019-04-11T19:02:28.497Z,15.00
2019-04-11T19:04:59.107Z,15.00
2019-04-11T19:07:30.910Z,14.77
2019-04-11T19:10:02.404Z,14.62
2019-04-11T19:12:32.984Z,14.34
2019-04-11T19:15:03.225Z,14.44
2019-04-11T19:17:34.129Z,14.49
2019-04-11T19:20:07.818Z,14.46
2019-04-11T19:22:39.622Z,14.54
2019-04-11T19:25:11.975Z,14.55
2019-04-11T19:27:43.149Z,14.36
2019-04-11T19:30:14.055Z,14.31
2019-04-11T19:32:46.352Z,14.25
2019-04-11T19:35:17.002Z,14.18
2019-04-11T19:37:47.266Z,14.27
2019-04-11T19:40:18.393Z,13.95
2019-04-11T19:42:49.845Z,14.06
2019-04-11T19:45:20.512Z,14.03
2019-04-11T19:47:52.219Z,13.96
2019-04-11T19:50:23.506Z,13.97
2019-04-11T19:52:54.674Z,14.02
2019-04-11T19:55:39.213Z,13.83
2019-04-11T19:58:09.870Z,13.77
2019-04-11T20:00:47.371Z,13.88
2019-04-11T20:03:21.857Z,13.51
2019-04-11T20:05:51.867Z,13.51
2019-04-11T20:08:22.109Z,13.56
2019-04-11T20:10:52.665Z,13.53
2019-04-11T20:13:26.059Z,13.53
2019-04-11T20:15:56.550Z,13.38
2019-04-11T20:18:27.152Z,13.56
2019-04-11T20:20:58.486Z,13.38
2019-04-11T20:23:30.266Z,13.54
2019-04-11T20:26:00.967Z,13.56
2019-04-11T20:28:32.437Z,13.65
2019-04-11T20:31:02.951Z,13.39
2019-04-11T20:33:34.869Z,13.35
2019-04-11T20:36:08.147Z,13.39
2019-04-11T20:38:40.517Z,13.56
2019-04-11T20:41:23.750Z,13.32
2019-04-11T20:43:57.123Z,13.23
2019-04-11T20:46:30.132Z,13.54
2019-04-11T20:49:01.982Z,13.57
2019-04-11T20:51:33.868Z,13.59
2019-04-11T20:54:07.359Z,13.58
2019-04-11T20:56:40.366Z,13.62
2019-04-11T20:59:13.126Z,13.62
2019-04-11T21:01:43.735Z,13.57
2019-04-11T21:04:14.375Z,13.59
2019-04-11T21:06:45.991Z,13.46
2019-04-11T21:09:16.931Z,13.57
2019-04-11T21:11:48.012Z,13.31
2019-04-11T21:14:35.655Z,13.45
2019-04-11T21:17:07.080Z,13.35
2019-04-11T21:19:38.590Z,13.40
2019-04-11T21:22:10.909Z,13.37
2019-04-11T21:24:41.900Z,13.37
2019-04-11T21:27:13.410Z,13.39
2019-04-11T21:29:44.991Z,13.40
2019-04-11T21:32:15.541Z,13.43
2019-04-11T21:34:45.832Z,13.39
2019-04-11T21:37:16.910Z,13.49
2019-04-11T21:39:47.934Z,13.48
2019-04-11T21:42:18.628Z,13.46
2019-04-11T21:44:53.460Z,13.38
2019-04-11T21:47:24.213Z,13.39
2019-04-11T21:49:55.312Z,13.29
2019-04-11T21:52:25.567Z,13.11
2019-04-11T21:54:55.976Z,13.11
2019-04-11T21:57:27.381Z,13.18
2019-04-11T22:00:01.399Z,13.22
2019-04-11T22:02:32.662Z,13.16
2019-04-11T22:05:05.451Z,13.06
2019-04-11T22:07:37.071Z,13.20
2019-04-11T22:10:08.334Z,13.14
2019-04-11T22:12:40.071Z,13.09
2019-04-11T22:15:11.985Z,13.11
2019-04-11T22:17:45.530Z,13.09
2019-04-11T22:20:16.821Z,13.04
2019-04-11T22:22:50.712Z,12.99
2019-04-11T22:25:21.989Z,13.06
2019-04-11T22:27:53.747Z,12.98
2019-04-11T22:30:26.027Z,12.90
2019-04-11T22:33:05.497Z,12.83
2019-04-11T22:35:36.150Z,12.66
2019-04-11T22:38:21.495Z,12.86
2019-04-11T22:41:04.229Z,12.86
2019-04-11T22:43:49.412Z,12.97
2019-04-11T22:46:28.736Z,12.94
2019-04-11T22:49:08.815Z,12.66
2019-04-11T22:51:44.871Z,12.60
2019-04-11T22:54:16.518Z,12.65
2019-04-11T22:56:51.858Z,12.72
2019-04-11T22:59:27.002Z,12.71
2019-04-11T23:02:22.447Z,12.56
2019-04-11T23:04:57.933Z,12.57
2019-04-11T23:07:45.880Z,12.70
2019-04-11T23:10:20.295Z,12.74
2019-04-11T23:13:06.655Z,12.70
2019-04-11T23:15:44.452Z,12.60
2019-04-11T23:18:20.103Z,12.66
2019-04-11T23:20:56.004Z,12.80
2019-04-11T23:23:30.411Z,12.79
2019-04-11T23:26:27.843Z,12.68
2019-04-11T23:28:58.864Z,12.83
2019-04-11T23:31:31.591Z,12.76
2019-04-11T23:34:02.685Z,12.70
2019-04-11T23:36:34.141Z,12.71
2019-04-11T23:39:08.009Z,12.45
2019-04-11T23:41:38.856Z,12.70
2019-04-11T23:44:11.397Z,12.73
2019-04-11T23:46:41.687Z,12.67
2019-04-11T23:49:14.646Z,12.75
2019-04-11T23:51:47.696Z,12.75
2019-04-11T23:54:22.997Z,12.80
2019-04-11T23:56:53.969Z,12.78
2019-04-11T23:59:24.626Z,12.69
